createdAt,value
2023-02-27T00:01:20.130Z,99838.31
2023-02-27T00:03:47.790Z,99837.53
2023-02-27T00:06:17.770Z,99842.53
2023-02-27T00:08:46.828Z,99843.41
2023-02-27T00:11:14.688Z,99845.06
2023-02-27T00:13:42.535Z,99844.34
2023-02-27T00:16:12.823Z,99844.06
2023-02-27T00:18:40.710Z,99844.25
2023-02-27T00:21:08.382Z,99841.47
2023-02-27T00:23:36.261Z,99823.09
2023-02-27T00:26:05.491Z,99832.91
2023-02-27T00:28:33.094Z,99834.59
2023-02-27T00:31:00.809Z,99828.63
2023-02-27T00:33:28.533Z,99830.25
2023-02-27T00:35:57.130Z,99831.94
2023-02-27T00:38:27.174Z,99836.47
2023-02-27T00:40:54.853Z,99834.75
2023-02-27T00:43:23.778Z,99835.38
2023-02-27T00:45:51.385Z,99831.91
2023-02-27T00:48:19.087Z,99833.75
2023-02-27T00:50:46.845Z,99840.56
2023-02-27T00:53:14.502Z,99833.50
2023-02-27T00:55:43.702Z,99840.47
2023-02-27T00:58:11.451Z,99834.50
2023-02-27T01:00:40.864Z,99832.75
2023-02-27T01:03:08.453Z,99843.09
2023-02-27T01:05:36.166Z,99835.41
2023-02-27T01:08:03.742Z,99843.84
2023-02-27T01:10:31.619Z,99841.22
2023-02-27T01:12:59.404Z,99832.56
2023-02-27T01:15:27.038Z,99844.63
2023-02-27T01:17:56.126Z,99841.09
2023-02-27T01:20:23.799Z,99836.81
2023-02-27T01:22:51.466Z,99842.84
2023-02-27T01:25:19.124Z,99839.59
2023-02-27T01:27:46.784Z,99840.38
2023-02-27T01:30:16.851Z,99842.09
2023-02-27T01:32:44.598Z,99830.06
2023-02-27T01:35:13.974Z,99839.56
2023-02-27T01:37:41.568Z,99842.09
2023-02-27T01:40:10.673Z,99836.06
2023-02-27T01:42:38.305Z,99839.53
2023-02-27T01:45:28.070Z,99833.47
2023-02-27T01:47:59.782Z,99842.09
2023-02-27T01:50:28.798Z,99835.38
2023-02-27T01:52:59.234Z,99837.00
2023-02-27T01:55:28.961Z,99836.13
2023-02-27T01:57:56.930Z,99833.44
2023-02-27T02:00:24.772Z,99829.97
2023-02-27T02:02:58.124Z,99832.59
2023-02-27T02:05:25.795Z,99832.50
2023-02-27T02:07:54.864Z,99834.31
2023-02-27T02:10:22.623Z,99824.81
2023-02-27T02:12:50.933Z,99827.41
2023-02-27T02:15:18.896Z,99829.03
2023-02-27T02:18:01.011Z,99829.09
2023-02-27T02:21:06.862Z,99825.63
2023-02-27T02:23:53.402Z,99829.13
2023-02-27T02:26:36.565Z,99826.44
2023-02-27T02:29:52.827Z,99827.41
2023-02-27T02:32:59.108Z,99836.69
2023-02-27T02:36:20.271Z,99834.28
2023-02-27T02:39:11.692Z,99832.69
2023-02-27T02:41:50.287Z,99829.91
2023-02-27T02:44:24.256Z,99831.66
2023-02-27T02:47:00.682Z,99836.88
2023-02-27T02:49:32.755Z,99830.03
2023-02-27T02:52:03.736Z,99822.31
2023-02-27T02:54:40.090Z,99824.81
2023-02-27T02:57:11.066Z,99829.97
2023-02-27T02:59:41.720Z,99816.34
2023-02-27T03:02:11.945Z,99827.63
2023-02-27T03:04:42.967Z,99835.28
2023-02-27T03:07:13.743Z,99794.41
2023-02-27T03:09:45.214Z,99829.16
2023-02-27T03:12:17.075Z,99811.78
2023-02-27T03:14:47.785Z,99838.69
2023-02-27T03:17:18.947Z,99829.13
2023-02-27T03:19:51.951Z,99834.38
2023-02-27T03:22:23.604Z,99836.13
2023-02-27T03:24:54.281Z,99836.16
2023-02-27T03:27:22.955Z,99835.22
2023-02-27T03:29:54.199Z,99836.88
2023-02-27T03:32:25.414Z,99831.63
2023-02-27T03:34:53.120Z,99838.63
2023-02-27T03:37:29.056Z,99841.19
2023-02-27T03:40:02.227Z,99844.63
2023-02-27T03:42:34.975Z,99848.03
2023-02-27T03:45:06.242Z,99850.53
2023-02-27T03:47:34.091Z,99857.41
2023-02-27T03:50:01.737Z,99857.41
2023-02-27T03:52:30.705Z,99857.47
2023-02-27T03:55:03.043Z,99851.38
2023-02-27T03:57:32.052Z,99856.47
2023-02-27T04:00:01.035Z,99854.72
2023-02-27T04:02:29.030Z,99856.50
2023-02-27T04:04:57.063Z,99862.66
2023-02-27T04:07:32.659Z,99860.78
2023-02-27T04:10:18.031Z,99864.28
2023-02-27T04:13:11.364Z,99863.28
2023-02-27T04:16:01.746Z,99876.22
2023-02-27T04:18:39.855Z,99878.03
2023-02-27T04:21:11.795Z,99878.91
2023-02-27T04:23:42.794Z,99875.53
2023-02-27T04:26:22.763Z,99876.22
2023-02-27T04:29:06.434Z,99882.31
2023-02-27T04:31:38.902Z,99873.81
2023-02-27T04:34:09.728Z,99883.19
2023-02-27T04:36:45.749Z,99882.25
2023-02-27T04:39:28.813Z,99888.31
2023-02-27T04:42:00.958Z,99887.50
2023-02-27T04:44:30.003Z,99888.28
2023-02-27T04:47:00.419Z,99884.88
2023-02-27T04:49:31.566Z,99887.31
2023-02-27T04:52:03.670Z,99879.72
2023-02-27T04:54:33.787Z,99893.31
2023-02-27T04:57:05.637Z,99894.19
2023-02-27T04:59:39.160Z,99894.19
2023-02-27T05:02:10.502Z,99893.22
2023-02-27T05:04:40.206Z,99892.34
2023-02-27T05:07:10.258Z,99895.78
2023-02-27T05:09:41.469Z,99894.84
2023-02-27T05:12:17.464Z,99878.50
2023-02-27T05:14:49.241Z,99897.44
2023-02-27T05:17:19.801Z,99902.66
2023-02-27T05:19:48.034Z,99902.59
2023-02-27T05:22:24.348Z,99903.28
2023-02-27T05:24:56.160Z,99893.91
2023-02-27T05:27:36.775Z,99916.44
2023-02-27T05:30:06.518Z,99911.09
2023-02-27T05:32:41.973Z,99914.66
2023-02-27T05:35:14.816Z,99916.34
2023-02-27T05:37:46.487Z,99918.22
2023-02-27T05:40:17.588Z,99923.22
2023-02-27T05:42:51.631Z,99928.22
2023-02-27T05:45:21.860Z,99929.72
2023-02-27T05:47:54.044Z,99934.06
2023-02-27T05:50:25.905Z,99931.41
2023-02-27T05:52:55.547Z,99919.31
2023-02-27T05:55:26.401Z,99923.91
2023-02-27T05:57:59.162Z,99928.97
2023-02-27T06:00:32.368Z,99928.03
2023-02-27T06:03:00.013Z,99929.69
2023-02-27T06:05:28.599Z,99923.47
2023-02-27T06:07:56.333Z,99927.09
2023-02-27T06:10:24.949Z,99929.44
2023-02-27T06:12:52.505Z,99929.63
2023-02-27T06:15:23.010Z,99935.59
2023-02-27T06:17:50.596Z,99941.44
2023-02-27T06:20:18.715Z,99954.53
2023-02-27T06:22:46.359Z,99950.41
2023-02-27T06:25:14.222Z,99958.94
2023-02-27T06:27:41.844Z,99958.31
2023-02-27T06:30:10.716Z,99962.53
2023-02-27T06:32:39.607Z,99963.41
2023-02-27T06:35:08.048Z,99968.63
2023-02-27T06:37:35.684Z,99963.66
2023-02-27T06:40:05.766Z,99971.50
2023-02-27T06:42:33.358Z,99974.28
2023-02-27T06:45:00.930Z,99971.00
2023-02-27T06:47:28.547Z,99970.31
2023-02-27T06:49:57.771Z,99976.41
2023-02-27T06:52:25.421Z,99971.41
2023-02-27T06:54:53.024Z,99970.81
2023-02-27T06:57:20.712Z,99980.38
2023-02-27T06:59:48.250Z,99979.63
2023-02-27T07:02:16.727Z,99979.88
2023-02-27T07:04:44.588Z,99985.22
2023-02-27T07:07:34.392Z,99981.88
2023-02-27T07:10:02.200Z,99985.44
2023-02-27T07:12:29.820Z,99984.13
2023-02-27T07:14:57.421Z,99979.88
2023-02-27T07:17:24.964Z,99979.19
2023-02-27T07:19:52.567Z,99984.28
2023-02-27T07:22:21.457Z,99975.81
2023-02-27T07:24:49.055Z,99983.56
2023-02-27T07:27:16.952Z,99982.97
2023-02-27T07:29:44.516Z,99969.25
2023-02-27T07:32:12.226Z,99980.56
2023-02-27T07:34:39.796Z,99979.03
2023-02-27T07:37:08.217Z,99980.75
2023-02-27T07:39:37.232Z,99983.38
2023-02-27T07:42:05.136Z,99961.75
2023-02-27T07:44:33.029Z,99983.53
2023-02-27T07:47:00.736Z,99989.69
2023-02-27T07:49:28.479Z,99987.31
2023-02-27T07:51:56.044Z,99990.78
2023-02-27T07:54:23.803Z,100004.56
2023-02-27T07:56:52.741Z,99995.88
2023-02-27T07:59:20.310Z,99997.97
2023-02-27T08:01:47.892Z,99991.16
2023-02-27T08:04:15.492Z,100003.28
2023-02-27T08:06:43.280Z,99999.69
2023-02-27T08:09:11.473Z,100007.47
2023-02-27T08:11:39.078Z,99993.75
2023-02-27T08:14:08.101Z,100002.59
2023-02-27T08:16:35.850Z,100001.16
2023-02-27T08:19:03.506Z,100006.25
2023-02-27T08:21:31.343Z,100009.44
2023-02-27T08:23:59.045Z,100001.09
2023-02-27T08:26:27.007Z,100007.03
2023-02-27T08:28:54.719Z,100007.00
2023-02-27T08:31:24.102Z,100003.53
2023-02-27T08:34:01.146Z,100004.53
2023-02-27T08:36:36.767Z,100004.53
2023-02-27T08:39:04.763Z,100013.06
2023-02-27T08:41:32.373Z,100014.09
2023-02-27T08:44:00.001Z,99999.22
2023-02-27T08:46:29.272Z,100015.03
2023-02-27T08:48:57.083Z,100011.72
2023-02-27T08:51:24.723Z,100019.44
2023-02-27T08:53:52.898Z,100010.88
2023-02-27T08:56:20.482Z,100010.91
2023-02-27T08:58:48.115Z,100007.53
2023-02-27T09:01:15.777Z,100002.41
2023-02-27T09:03:44.735Z,100017.97
2023-02-27T09:06:12.665Z,100009.41
2023-02-27T09:08:40.459Z,100013.81
2023-02-27T09:11:08.029Z,100023.34
2023-02-27T09:13:35.629Z,100009.53
2023-02-27T09:16:03.352Z,100007.91
2023-02-27T09:18:30.926Z,100018.22
2023-02-27T09:20:59.833Z,100016.44
2023-02-27T09:23:27.444Z,100002.50
2023-02-27T09:25:55.004Z,100019.88
2023-02-27T09:28:22.640Z,100008.78
2023-02-27T09:30:50.272Z,100023.44
2023-02-27T09:33:17.858Z,100017.31
2023-02-27T09:35:45.613Z,100029.16
2023-02-27T09:38:14.693Z,100025.19
2023-02-27T09:40:43.710Z,100032.34
2023-02-27T09:43:15.433Z,100026.41
2023-02-27T09:45:44.570Z,100030.72
2023-02-27T09:48:16.708Z,100040.19
2023-02-27T09:50:45.986Z,100039.19
2023-02-27T09:53:17.073Z,100026.38
2023-02-27T09:55:45.578Z,100046.06
2023-02-27T09:58:25.736Z,100040.03
2023-02-27T10:00:58.503Z,100042.53
2023-02-27T10:03:38.806Z,100056.44
2023-02-27T10:06:21.482Z,100057.28
2023-02-27T10:08:56.492Z,100050.53
2023-02-27T10:11:28.225Z,100053.06
2023-02-27T10:14:00.993Z,100053.16
2023-02-27T10:16:29.591Z,100039.16
2023-02-27T10:19:00.024Z,100050.31
2023-02-27T10:21:32.345Z,100064.97
2023-02-27T10:24:07.676Z,100064.06
2023-02-27T10:26:38.642Z,100070.47
2023-02-27T10:29:16.436Z,100062.59
2023-02-27T10:34:32.553Z,100058.44
2023-02-27T10:37:02.248Z,100078.31
2023-02-27T10:39:31.735Z,100073.34
2023-02-27T10:42:03.896Z,100073.38
2023-02-27T10:44:32.090Z,100075.91
2023-02-27T10:46:59.841Z,100080.16
2023-02-27T10:49:29.934Z,100080.19
2023-02-27T10:52:10.553Z,100069.69
2023-02-27T10:54:40.148Z,100072.28
2023-02-27T10:57:19.829Z,100064.41
2023-02-27T10:59:52.746Z,100068.06
2023-02-27T11:02:23.686Z,100058.63
2023-02-27T11:04:54.502Z,100052.63
2023-02-27T11:07:31.210Z,100052.81
2023-02-27T11:10:16.730Z,100044.91
2023-02-27T11:12:58.688Z,100044.09
2023-02-27T11:15:27.998Z,100048.41
2023-02-27T11:17:55.837Z,100051.97
2023-02-27T11:20:35.367Z,100044.22
2023-02-27T11:23:05.103Z,100043.38
2023-02-27T11:25:34.557Z,100040.75
2023-02-27T11:28:22.234Z,100038.94
2023-02-27T11:30:58.145Z,100039.78
2023-02-27T11:33:26.211Z,100015.47
2023-02-27T11:35:57.568Z,100031.13
2023-02-27T11:38:27.473Z,100029.31
2023-02-27T11:40:57.710Z,100018.06
2023-02-27T11:43:26.925Z,100027.66
2023-02-27T11:46:05.218Z,100028.53
2023-02-27T11:48:49.855Z,100027.63
2023-02-27T11:51:33.774Z,99989.53
2023-02-27T11:54:16.706Z,100012.16
2023-02-27T11:56:48.114Z,100009.56
2023-02-27T11:59:26.744Z,99993.03
2023-02-27T12:01:57.470Z,99997.41
2023-02-27T12:04:28.396Z,100009.56
2023-02-27T12:06:59.266Z,100003.47
2023-02-27T12:09:39.917Z,100003.47
2023-02-27T12:12:16.960Z,100002.59
2023-02-27T12:14:48.513Z,99995.66
2023-02-27T12:17:22.262Z,99991.31
2023-02-27T12:20:00.629Z,99978.28
2023-02-27T12:22:31.802Z,99993.06
2023-02-27T12:25:03.292Z,99982.63
2023-02-27T12:27:39.189Z,99982.63
2023-02-27T12:30:11.466Z,99976.56
2023-02-27T12:32:44.285Z,99973.94
2023-02-27T12:35:16.922Z,99967.00
2023-02-27T12:37:44.526Z,99967.00
2023-02-27T12:40:16.147Z,99979.16
2023-02-27T12:43:15.594Z,99966.16
2023-02-27T12:45:56.431Z,99966.16
2023-02-27T12:48:39.959Z,99970.47
2023-02-27T12:51:17.617Z,99953.94
2023-02-27T12:54:01.857Z,99972.16
2023-02-27T12:56:38.123Z,99978.25
2023-02-27T12:59:13.642Z,99970.47
2023-02-27T13:01:49.569Z,99956.59
2023-02-27T13:04:24.830Z,99965.28
2023-02-27T13:06:54.735Z,99961.72
2023-02-27T13:09:34.882Z,99960.75
2023-02-27T13:12:09.839Z,99966.06
2023-02-27T13:14:47.083Z,99968.75
2023-02-27T13:17:19.598Z,99955.72
2023-02-27T13:19:52.973Z,99962.66
2023-02-27T13:22:27.207Z,99964.38
2023-02-27T13:24:57.372Z,99957.34
2023-02-27T13:27:28.703Z,99950.25
2023-02-27T13:30:09.529Z,99953.72
2023-02-27T13:32:44.512Z,99957.25
2023-02-27T13:35:25.680Z,99943.25
2023-02-27T13:37:55.353Z,99946.56
2023-02-27T13:40:31.865Z,99955.38
2023-02-27T13:43:02.062Z,99952.00
2023-02-27T13:45:50.766Z,99955.34
2023-02-27T13:48:37.829Z,99958.16
2023-02-27T13:51:06.483Z,99956.50
2023-02-27T13:53:34.740Z,99954.78
2023-02-27T13:56:20.645Z,99954.78
2023-02-27T13:58:48.696Z,99951.25
2023-02-27T14:01:20.088Z,99942.56
2023-02-27T14:03:54.623Z,99952.13
2023-02-27T14:06:22.919Z,99957.28
2023-02-27T14:08:52.201Z,99953.00
2023-02-27T14:11:23.353Z,99942.59
2023-02-27T14:14:30.137Z,99943.44
2023-02-27T14:17:01.522Z,99942.44
2023-02-27T14:19:57.123Z,99943.91
2023-02-27T14:22:41.098Z,99943.91
2023-02-27T14:25:19.909Z,99937.78
2023-02-27T14:27:51.097Z,99940.31
2023-02-27T14:30:30.575Z,99944.75
2023-02-27T14:33:02.673Z,99943.84
2023-02-27T14:35:31.298Z,99943.91
2023-02-27T14:38:01.269Z,99944.00
2023-02-27T14:40:32.726Z,99952.78
2023-02-27T14:43:06.616Z,99944.09
2023-02-27T14:45:34.243Z,99950.28
2023-02-27T14:48:03.372Z,99946.88
2023-02-27T14:50:34.251Z,99947.81
2023-02-27T14:53:02.542Z,99944.31
2023-02-27T14:55:31.435Z,99947.78
2023-02-27T14:58:02.305Z,99947.81
2023-02-27T15:00:35.985Z,99929.53
2023-02-27T15:03:15.165Z,99941.59
2023-02-27T15:05:48.977Z,99935.47
2023-02-27T15:08:18.783Z,99927.47
2023-02-27T15:10:46.783Z,99933.69
2023-02-27T15:13:24.075Z,99938.16
2023-02-27T15:15:56.945Z,99927.75
2023-02-27T15:18:27.340Z,99925.22
2023-02-27T15:20:59.318Z,99931.25
2023-02-27T15:23:28.850Z,99931.25
2023-02-27T15:25:58.027Z,99922.53
2023-02-27T15:28:27.974Z,99939.13
2023-02-27T15:30:57.231Z,99940.00
2023-02-27T15:33:29.688Z,99930.41
2023-02-27T15:35:57.818Z,99930.41
2023-02-27T15:38:27.915Z,99936.47
2023-02-27T15:40:55.803Z,99941.72
2023-02-27T15:43:23.879Z,99940.03
2023-02-27T15:45:52.735Z,99946.13
2023-02-27T15:48:20.878Z,99935.69
2023-02-27T15:50:53.937Z,99940.91
2023-02-27T15:53:23.701Z,99941.78
2023-02-27T15:55:52.700Z,99943.53
2023-02-27T15:58:25.401Z,99937.47
2023-02-27T16:01:00.693Z,99946.97
2023-02-27T16:03:32.941Z,99944.44
2023-02-27T16:06:02.390Z,99954.84
2023-02-27T16:08:31.495Z,99963.53
2023-02-27T16:10:59.112Z,99961.78
2023-02-27T16:13:34.984Z,99958.31
2023-02-27T16:16:04.098Z,99966.13
2023-02-27T16:18:35.355Z,99963.53
2023-02-27T16:21:12.772Z,99968.75
2023-02-27T16:23:40.645Z,99979.16
2023-02-27T16:26:24.132Z,99978.28
2023-02-27T16:28:53.625Z,99953.13
2023-02-27T16:31:28.548Z,99973.97
2023-02-27T16:33:57.840Z,99979.16
2023-02-27T16:36:28.447Z,99973.09
2023-02-27T16:38:56.507Z,99981.75
2023-02-27T16:41:25.219Z,99986.09
2023-02-27T16:43:54.661Z,99989.53
2023-02-27T16:46:22.610Z,99988.69
2023-02-27T16:48:52.000Z,99971.31
2023-02-27T16:51:23.737Z,100000.78
2023-02-27T16:53:53.794Z,99992.97
2023-02-27T16:56:35.909Z,100001.66
2023-02-27T16:59:05.232Z,100008.56
2023-02-27T17:01:34.207Z,100013.75
2023-02-27T17:04:02.487Z,100008.53
2023-02-27T17:06:30.964Z,100009.44
2023-02-27T17:09:00.122Z,100012.00
2023-02-27T17:11:27.818Z,100016.31
2023-02-27T17:13:55.463Z,100016.34
2023-02-27T17:16:23.258Z,100026.72
2023-02-27T17:18:50.946Z,100019.75
2023-02-27T17:21:18.655Z,100026.69
2023-02-27T17:23:46.403Z,100033.59
2023-02-27T17:26:15.856Z,100032.72
2023-02-27T17:28:43.729Z,100029.28
2023-02-27T17:31:11.880Z,100033.56
2023-02-27T17:33:39.481Z,100041.34
2023-02-27T17:36:09.394Z,100036.16
2023-02-27T17:38:38.109Z,100042.22
2023-02-27T17:41:08.021Z,100037.00
2023-02-27T17:43:37.166Z,100044.75
2023-02-27T17:46:06.896Z,100042.16
2023-02-27T17:48:35.454Z,100044.75
2023-02-27T17:51:06.619Z,100043.84
2023-02-27T17:53:35.534Z,100046.44
2023-02-27T17:56:03.602Z,100044.66
2023-02-27T17:58:31.671Z,100064.63
2023-02-27T18:01:06.005Z,100071.53
2023-02-27T18:03:33.828Z,100072.44
2023-02-27T18:06:02.132Z,100062.03
2023-02-27T18:08:29.786Z,100081.06
2023-02-27T18:10:57.319Z,100081.91
2023-02-27T18:13:26.578Z,100087.13
2023-02-27T18:15:54.502Z,100088.78
2023-02-27T18:18:24.148Z,100082.72
2023-02-27T18:21:00.732Z,100079.28
2023-02-27T18:23:28.407Z,100081.88
2023-02-27T18:25:56.673Z,100080.94
2023-02-27T18:28:24.838Z,100083.56
2023-02-27T18:30:52.684Z,100093.91
2023-02-27T18:33:20.606Z,100090.44
2023-02-27T18:35:50.082Z,100089.59
2023-02-27T18:38:17.703Z,100083.41
2023-02-27T18:40:45.537Z,100085.16
2023-02-27T18:43:13.749Z,100092.00
2023-02-27T18:45:41.778Z,100091.06
2023-02-27T18:48:11.126Z,100091.88
2023-02-27T18:50:38.701Z,100090.13
2023-02-27T18:53:07.615Z,100098.66
2023-02-27T18:55:35.889Z,100099.50
2023-02-27T18:58:04.663Z,100090.72
2023-02-27T19:00:33.709Z,100092.38
2023-02-27T19:03:01.439Z,100088.06
2023-02-27T19:05:29.003Z,100101.91
2023-02-27T19:07:57.388Z,100094.06
2023-02-27T19:10:26.380Z,100100.09
2023-02-27T19:12:53.990Z,100098.22
2023-02-27T19:15:21.866Z,100106.00
2023-02-27T19:17:49.531Z,100099.94
2023-02-27T19:20:18.511Z,100101.63
2023-02-27T19:22:46.106Z,100102.38
2023-02-27T19:25:13.769Z,100111.59
2023-02-27T19:27:44.690Z,100098.84
2023-02-27T19:30:13.172Z,100100.47
2023-02-27T19:32:40.840Z,100108.38
2023-02-27T19:35:12.433Z,100112.44
2023-02-27T19:37:40.533Z,100099.34
2023-02-27T19:40:09.753Z,100108.88
2023-02-27T19:42:37.530Z,100116.47
2023-02-27T19:45:07.593Z,100108.69
2023-02-27T19:47:37.159Z,100116.53
2023-02-27T19:50:05.254Z,100115.53
2023-02-27T19:52:32.816Z,100116.38
2023-02-27T19:55:00.431Z,100112.88
2023-02-27T19:57:28.618Z,100111.94
2023-02-27T19:59:56.261Z,100112.75
2023-02-27T20:02:26.316Z,100116.22
2023-02-27T20:04:54.623Z,100116.00
2023-02-27T20:07:22.752Z,100121.97
2023-02-27T20:09:50.742Z,100116.72
2023-02-27T20:12:18.362Z,100119.19
2023-02-27T20:14:45.946Z,100100.22
2023-02-27T20:17:14.112Z,100117.63
2023-02-27T20:19:43.122Z,100108.03
2023-02-27T20:22:13.467Z,100108.13
2023-02-27T20:24:41.256Z,100111.78
2023-02-27T20:27:08.895Z,100109.81
2023-02-27T20:29:36.537Z,100111.41
2023-02-27T20:32:05.165Z,100109.78
2023-02-27T20:34:33.005Z,100105.47
2023-02-27T20:37:03.172Z,100114.06
2023-02-27T20:39:30.770Z,100111.47
2023-02-27T20:41:58.485Z,100114.97
2023-02-27T20:44:26.086Z,100113.28
2023-02-27T20:46:53.987Z,100115.84
2023-02-27T20:49:22.692Z,100121.16
2023-02-27T20:51:50.445Z,100111.47
2023-02-27T20:54:20.638Z,100116.81
2023-02-27T20:56:51.868Z,100110.78
2023-02-27T20:59:21.638Z,100114.28
2023-02-27T21:01:52.197Z,100104.84
2023-02-27T21:04:21.422Z,100117.00
2023-02-27T21:06:49.367Z,100118.75
2023-02-27T21:09:17.032Z,100108.31
2023-02-27T21:11:46.117Z,100115.09
2023-02-27T21:14:14.473Z,100117.78
2023-02-27T21:16:42.134Z,100113.63
2023-02-27T21:19:09.772Z,100123.81
2023-02-27T21:21:37.588Z,100111.84
2023-02-27T21:24:06.340Z,100107.50
2023-02-27T21:26:35.965Z,100110.94
2023-02-27T21:29:07.594Z,100108.25
2023-02-27T21:31:36.071Z,100112.50
2023-02-27T21:34:06.810Z,100109.81
2023-02-27T21:36:36.297Z,100106.44
2023-02-27T21:39:06.079Z,100105.50
2023-02-27T21:41:34.685Z,100111.66
2023-02-27T21:44:03.448Z,100106.38
2023-02-27T21:46:33.289Z,100107.81
2023-02-27T21:49:01.583Z,100097.53
2023-02-27T21:51:39.976Z,100101.00
2023-02-27T21:54:10.824Z,100098.34
2023-02-27T21:56:39.270Z,100096.72
2023-02-27T21:59:06.929Z,100094.88
2023-02-27T22:01:36.434Z,100098.09
2023-02-27T22:04:04.524Z,100091.22
2023-02-27T22:06:33.872Z,100094.72
2023-02-27T22:09:04.365Z,100089.44
2023-02-27T22:11:32.566Z,100096.41
2023-02-27T22:14:00.219Z,100093.63
2023-02-27T22:16:28.014Z,100110.03
2023-02-27T22:18:57.057Z,100103.94
2023-02-27T22:21:27.040Z,100077.72
2023-02-27T22:23:55.548Z,100091.50
2023-02-27T22:26:25.198Z,100096.75
2023-02-27T22:28:53.569Z,100101.22
2023-02-27T22:31:22.528Z,100096.69
2023-02-27T22:33:52.230Z,100101.03
2023-02-27T22:36:22.396Z,100098.25
2023-02-27T22:38:50.337Z,100088.66
2023-02-27T22:41:20.403Z,100100.81
2023-02-27T22:43:48.222Z,100102.47
2023-02-27T22:46:18.437Z,100108.38
2023-02-27T22:48:46.049Z,100103.94
2023-02-27T22:51:15.642Z,100115.94
2023-02-27T22:53:45.986Z,100114.09
2023-02-27T22:56:16.055Z,100115.78
2023-02-27T22:58:45.086Z,100121.81
2023-02-27T23:01:14.369Z,100121.88
2023-02-27T23:03:42.630Z,100119.13
2023-02-27T23:06:11.939Z,100113.00
2023-02-27T23:08:39.933Z,100120.06
2023-02-27T23:11:09.733Z,100117.53
2023-02-27T23:13:37.514Z,100111.31
2023-02-27T23:16:11.242Z,100113.94
2023-02-27T23:18:39.732Z,100114.75
2023-02-27T23:21:07.914Z,100110.31
2023-02-27T23:23:35.955Z,100113.09
2023-02-27T23:26:05.636Z,100108.56
2023-02-27T23:28:36.671Z,100101.63
2023-02-27T23:31:04.392Z,100098.09
2023-02-27T23:33:32.595Z,100112.97
2023-02-27T23:36:00.853Z,100115.22
2023-02-27T23:38:29.377Z,100105.81
2023-02-27T23:40:57.063Z,100112.53
2023-02-27T23:43:42.562Z,100113.94
2023-02-27T23:46:12.858Z,100115.69
2023-02-27T23:48:41.180Z,100112.38
2023-02-27T23:51:09.873Z,100116.00
2023-02-27T23:53:40.096Z,100115.19
2023-02-27T23:56:14.061Z,100088.00
2023-02-27T23:58:41.903Z,100103.81
